RA64053 UUBW-UUEE
Flight info
| Callsign | RA64053 |
|---|---|
| Flight time | 0h 46m |
| Altitude | 21000 |
| Route | N0440F210 SUNU2B SUNUN DCT NAMIN NAMI3E |
| Aircraft | T204/M-VGDW/C |
Departure
| Time | 2026-04-23 06:03 |
|---|---|
| Airport | Zhukovsky International Airport (UUBW) |
Arrival
| Time | 2026-04-23 06:49 |
|---|---|
| Airport | Sheremetyevo International Airport (UUEE) |
| Time | Latitude | Longitude | Altitude | Speed | Heading |
|---|---|---|---|---|---|
| 2026-04-23 05:34 | 55.56235 | 38.12278 | 381 ft | 0 kts | 223° |
| 2026-04-23 05:55 | 55.56242 | 38.12289 | 382 ft | 2 kts | 223° |
| 2026-04-23 05:56 | 55.56253 | 38.12307 | 382 ft | 2 kts | 223° |
| 2026-04-23 05:56 | 55.56264 | 38.12324 | 382 ft | 2 kts | 223° |
| 2026-04-23 05:56 | 55.56276 | 38.12339 | 382 ft | 2 kts | 193° |
| 2026-04-23 05:56 | 55.56290 | 38.12339 | 382 ft | 2 kts | 165° |
| 2026-04-23 05:57 | 55.56302 | 38.12327 | 382 ft | 2 kts | 134° |
| 2026-04-23 05:57 | 55.56311 | 38.12307 | 382 ft | 2 kts | 130° |
| 2026-04-23 05:57 | 55.56321 | 38.12287 | 382 ft | 1 kts | 130° |
| 2026-04-23 05:57 | 55.56324 | 38.12280 | 382 ft | 0 kts | 131° |
| 2026-04-23 05:59 | 55.56324 | 38.12281 | 382 ft | 0 kts | 131° |
| 2026-04-23 06:00 | 55.56295 | 38.12340 | 382 ft | 13 kts | 131° |
| 2026-04-23 06:00 | 55.56200 | 38.12527 | 382 ft | 25 kts | 131° |
| 2026-04-23 06:00 | 55.56087 | 38.12803 | 382 ft | 30 kts | 123° |
| 2026-04-23 06:00 | 55.55941 | 38.13106 | 382 ft | 35 kts | 132° |
| 2026-04-23 06:01 | 55.55769 | 38.13446 | 382 ft | 39 kts | 130° |
| 2026-04-23 06:01 | 55.55576 | 38.13831 | 382 ft | 43 kts | 134° |
| 2026-04-23 06:01 | 55.55366 | 38.14247 | 382 ft | 47 kts | 126° |
| 2026-04-23 06:01 | 55.55141 | 38.14696 | 382 ft | 49 kts | 130° |
| 2026-04-23 06:02 | 55.54937 | 38.15082 | 382 ft | 30 kts | 125° |
| 2026-04-23 06:02 | 55.54948 | 38.15327 | 382 ft | 19 kts | 47° |
| 2026-04-23 06:02 | 55.55025 | 38.15448 | 382 ft | 10 kts | 19° |
| 2026-04-23 06:02 | 55.55074 | 38.15394 | 382 ft | 7 kts | 312° |
| 2026-04-23 06:03 | 55.55121 | 38.15303 | 382 ft | 27 kts | 311° |
| 2026-04-23 06:03 | 55.55521 | 38.14504 | 386 ft | 142 kts | 310° |
| 2026-04-23 06:03 | 55.56317 | 38.12942 | 758 ft | 205 kts | 312° |
| 2026-04-23 06:03 | 55.57267 | 38.11177 | 2042 ft | 206 kts | 311° |
| 2026-04-23 06:04 | 55.58170 | 38.09172 | 2982 ft | 224 kts | 300° |
| 2026-04-23 06:04 | 55.58361 | 38.06307 | 3669 ft | 259 kts | 256° |
| 2026-04-23 06:04 | 55.57368 | 38.03712 | 4920 ft | 269 kts | 220° |
| 2026-04-23 06:04 | 55.55616 | 38.02497 | 6024 ft | 283 kts | 185° |
| 2026-04-23 06:05 | 55.53731 | 38.03242 | 7212 ft | 288 kts | 150° |
| 2026-04-23 06:05 | 55.52350 | 38.05654 | 8405 ft | 287 kts | 123° |
| 2026-04-23 06:05 | 55.51252 | 38.08538 | 9508 ft | 289 kts | 122° |
| 2026-04-23 06:05 | 55.50677 | 38.11923 | 10468 ft | 296 kts | 87° |
| 2026-04-23 06:06 | 55.51278 | 38.15285 | 11405 ft | 301 kts | 56° |
| 2026-04-23 06:06 | 55.52831 | 38.17693 | 12333 ft | 304 kts | 24° |
| 2026-04-23 06:06 | 55.54881 | 38.18346 | 13224 ft | 306 kts | 352° |
| 2026-04-23 06:06 | 55.56939 | 38.17432 | 14122 ft | 309 kts | 339° |
| 2026-04-23 06:07 | 55.58767 | 38.15592 | 14861 ft | 311 kts | 310° |
| 2026-04-23 06:07 | 55.59927 | 38.12471 | 15826 ft | 307 kts | 292° |
| 2026-04-23 06:07 | 55.60551 | 38.08859 | 16689 ft | 306 kts | 274° |
| 2026-04-23 06:07 | 55.60461 | 38.05158 | 17538 ft | 305 kts | 255° |
| 2026-04-23 06:08 | 55.59671 | 38.01765 | 18389 ft | 304 kts | 236° |
| 2026-04-23 06:08 | 55.58259 | 37.99013 | 19222 ft | 305 kts | 217° |
| 2026-04-23 06:08 | 55.56480 | 37.97022 | 20076 ft | 309 kts | 215° |
| 2026-04-23 06:08 | 55.54925 | 37.94397 | 20293 ft | 317 kts | 231° |
| 2026-04-23 06:09 | 55.53779 | 37.91124 | 20264 ft | 316 kts | 242° |
| 2026-04-23 06:09 | 55.52980 | 37.87492 | 20279 ft | 314 kts | 249° |
| 2026-04-23 06:09 | 55.52331 | 37.83857 | 20276 ft | 314 kts | 251° |
| 2026-04-23 06:09 | 55.51729 | 37.80182 | 20277 ft | 314 kts | 252° |
| 2026-04-23 06:10 | 55.51138 | 37.76463 | 20272 ft | 313 kts | 252° |
| 2026-04-23 06:10 | 55.50566 | 37.72799 | 20274 ft | 314 kts | 252° |
| 2026-04-23 06:10 | 55.49827 | 37.69215 | 20268 ft | 312 kts | 244° |
| 2026-04-23 06:10 | 55.48933 | 37.65727 | 20281 ft | 313 kts | 244° |
| 2026-04-23 06:11 | 55.48033 | 37.62242 | 20264 ft | 313 kts | 244° |
| 2026-04-23 06:11 | 55.47126 | 37.58725 | 20274 ft | 313 kts | 244° |
| 2026-04-23 06:11 | 55.45945 | 37.55582 | 20260 ft | 310 kts | 225° |
| 2026-04-23 06:11 | 55.44320 | 37.53131 | 20438 ft | 310 kts | 219° |
| 2026-04-23 06:12 | 55.42592 | 37.50828 | 20580 ft | 312 kts | 217° |
| 2026-04-23 06:12 | 55.40848 | 37.48614 | 20682 ft | 313 kts | 216° |
| 2026-04-23 06:12 | 55.37301 | 37.44180 | 21098 ft | 314 kts | 216° |
| 2026-04-23 06:13 | 55.35520 | 37.41958 | 21272 ft | 316 kts | 216° |
| 2026-04-23 06:13 | 55.33860 | 37.39397 | 21221 ft | 317 kts | 231° |
| 2026-04-23 06:13 | 55.32762 | 37.36068 | 21279 ft | 317 kts | 246° |
| 2026-04-23 06:13 | 55.32068 | 37.32422 | 21265 ft | 320 kts | 254° |
| 2026-04-23 06:14 | 55.31736 | 37.28590 | 21268 ft | 320 kts | 262° |
| 2026-04-23 06:14 | 55.31576 | 37.24655 | 21276 ft | 321 kts | 264° |
| 2026-04-23 06:14 | 55.31475 | 37.20750 | 21273 ft | 322 kts | 265° |
| 2026-04-23 06:14 | 55.31400 | 37.16853 | 21270 ft | 322 kts | 265° |
| 2026-04-23 06:15 | 55.31377 | 37.12892 | 21257 ft | 324 kts | 271° |
| 2026-04-23 06:15 | 55.31898 | 37.09079 | 21257 ft | 329 kts | 286° |
| 2026-04-23 06:15 | 55.32704 | 37.05337 | 21289 ft | 330 kts | 287° |
| 2026-04-23 06:15 | 55.33547 | 37.01593 | 21267 ft | 330 kts | 288° |
| 2026-04-23 06:16 | 55.34402 | 36.97826 | 21273 ft | 331 kts | 288° |
| 2026-04-23 06:16 | 55.35248 | 36.94088 | 21270 ft | 330 kts | 288° |
| 2026-04-23 06:16 | 55.36092 | 36.90364 | 21271 ft | 330 kts | 288° |
| 2026-04-23 06:16 | 55.37049 | 36.86716 | 21231 ft | 335 kts | 300° |
| 2026-04-23 06:17 | 55.38725 | 36.83828 | 21276 ft | 340 kts | 321° |
| 2026-04-23 06:17 | 55.40801 | 36.81781 | 21270 ft | 345 kts | 334° |
| 2026-04-23 06:17 | 55.43115 | 36.80706 | 21257 ft | 348 kts | 350° |
| 2026-04-23 06:17 | 55.45507 | 36.80263 | 21288 ft | 350 kts | 352° |
| 2026-04-23 06:18 | 55.47931 | 36.79926 | 21266 ft | 350 kts | 353° |
| 2026-04-23 06:18 | 55.50372 | 36.79635 | 21275 ft | 350 kts | 354° |
| 2026-04-23 06:18 | 55.52792 | 36.79365 | 21270 ft | 350 kts | 354° |
| 2026-04-23 06:18 | 55.55192 | 36.79106 | 21275 ft | 350 kts | 354° |
| 2026-04-23 06:19 | 55.57619 | 36.78847 | 21277 ft | 349 kts | 353° |
| 2026-04-23 06:19 | 55.59959 | 36.77973 | 21267 ft | 345 kts | 335° |
| 2026-04-23 06:19 | 55.62064 | 36.76009 | 21317 ft | 342 kts | 326° |
| 2026-04-23 06:19 | 55.64090 | 36.73785 | 21281 ft | 342 kts | 324° |
| 2026-04-23 06:20 | 55.66060 | 36.71464 | 21286 ft | 341 kts | 323° |
| 2026-04-23 06:20 | 55.68008 | 36.69103 | 21278 ft | 340 kts | 322° |
| 2026-04-23 06:20 | 55.69959 | 36.66699 | 21277 ft | 340 kts | 322° |
| 2026-04-23 06:20 | 55.71885 | 36.64300 | 21279 ft | 340 kts | 322° |
| 2026-04-23 06:21 | 55.73820 | 36.61884 | 21277 ft | 340 kts | 322° |
| 2026-04-23 06:21 | 55.75734 | 36.59486 | 21280 ft | 340 kts | 322° |
| 2026-04-23 06:21 | 55.77655 | 36.57074 | 21281 ft | 340 kts | 322° |
| 2026-04-23 06:21 | 55.79579 | 36.54650 | 21289 ft | 340 kts | 322° |
| 2026-04-23 06:22 | 55.81523 | 36.52195 | 21276 ft | 341 kts | 322° |
| 2026-04-23 06:22 | 55.83442 | 36.49777 | 21282 ft | 339 kts | 322° |
| 2026-04-23 06:22 | 55.85366 | 36.47350 | 21274 ft | 339 kts | 322° |
| 2026-04-23 06:22 | 55.87287 | 36.44923 | 21281 ft | 340 kts | 323° |
| 2026-04-23 06:23 | 55.89243 | 36.42606 | 21274 ft | 341 kts | 325° |
| 2026-04-23 06:23 | 55.91225 | 36.40303 | 21285 ft | 341 kts | 324° |
| 2026-04-23 06:23 | 55.93207 | 36.37999 | 21288 ft | 341 kts | 324° |
| 2026-04-23 06:23 | 55.95136 | 36.35750 | 21272 ft | 332 kts | 324° |
| 2026-04-23 06:24 | 55.97048 | 36.33512 | 21286 ft | 327 kts | 324° |
| 2026-04-23 06:24 | 55.98947 | 36.31285 | 21293 ft | 326 kts | 324° |
| 2026-04-23 06:24 | 56.00827 | 36.29077 | 21299 ft | 326 kts | 323° |
| 2026-04-23 06:24 | 56.02621 | 36.26964 | 21297 ft | 327 kts | 323° |
| 2026-04-23 06:25 | 56.04510 | 36.24737 | 21300 ft | 327 kts | 323° |
| 2026-04-23 06:25 | 56.06391 | 36.22515 | 21302 ft | 326 kts | 323° |
| 2026-04-23 06:25 | 56.08302 | 36.20257 | 21302 ft | 326 kts | 323° |
| 2026-04-23 06:25 | 56.10201 | 36.18004 | 21309 ft | 326 kts | 323° |
| 2026-04-23 06:26 | 56.12183 | 36.16069 | 21265 ft | 330 kts | 340° |
| 2026-04-23 06:26 | 56.14454 | 36.15566 | 21315 ft | 332 kts | 359° |
| 2026-04-23 06:26 | 56.16730 | 36.16072 | 21306 ft | 335 kts | 12° |
| 2026-04-23 06:26 | 56.18899 | 36.17632 | 21299 ft | 336 kts | 28° |
| 2026-04-23 06:27 | 56.20809 | 36.19733 | 21323 ft | 337 kts | 31° |
| 2026-04-23 06:27 | 56.22780 | 36.22035 | 21308 ft | 337 kts | 32° |
| 2026-04-23 06:27 | 56.24705 | 36.24350 | 21306 ft | 337 kts | 33° |
| 2026-04-23 06:27 | 56.26517 | 36.26558 | 21309 ft | 336 kts | 34° |
| 2026-04-23 06:28 | 56.28571 | 36.29116 | 21283 ft | 337 kts | 33° |
| 2026-04-23 06:28 | 56.30511 | 36.31503 | 21303 ft | 337 kts | 33° |
| 2026-04-23 06:28 | 56.32439 | 36.33849 | 21304 ft | 338 kts | 33° |
| 2026-04-23 06:28 | 56.34386 | 36.36217 | 21311 ft | 338 kts | 33° |
| 2026-04-23 06:29 | 56.36333 | 36.38593 | 21323 ft | 338 kts | 33° |
| 2026-04-23 06:29 | 56.38263 | 36.40953 | 21327 ft | 338 kts | 33° |
| 2026-04-23 06:29 | 56.40211 | 36.43338 | 21320 ft | 338 kts | 33° |
| 2026-04-23 06:29 | 56.42140 | 36.45702 | 21308 ft | 338 kts | 33° |
| 2026-04-23 06:30 | 56.44094 | 36.48095 | 21313 ft | 338 kts | 33° |
| 2026-04-23 06:30 | 56.46019 | 36.50454 | 21291 ft | 338 kts | 33° |
| 2026-04-23 06:30 | 56.47990 | 36.52870 | 20819 ft | 340 kts | 33° |
| 2026-04-23 06:30 | 56.49909 | 36.55224 | 20295 ft | 336 kts | 32° |
| 2026-04-23 06:31 | 56.51827 | 36.57575 | 19698 ft | 333 kts | 32° |
| 2026-04-23 06:31 | 56.53710 | 36.59883 | 19187 ft | 328 kts | 32° |
| 2026-04-23 06:31 | 56.55591 | 36.62188 | 18671 ft | 322 kts | 32° |
| 2026-04-23 06:31 | 56.57419 | 36.64422 | 18142 ft | 319 kts | 32° |
| 2026-04-23 06:32 | 56.59247 | 36.66655 | 17597 ft | 315 kts | 33° |
| 2026-04-23 06:32 | 56.61041 | 36.68851 | 17075 ft | 312 kts | 33° |
| 2026-04-23 06:32 | 56.62851 | 36.71062 | 16533 ft | 309 kts | 33° |
| 2026-04-23 06:32 | 56.64609 | 36.73209 | 16000 ft | 306 kts | 33° |
| 2026-04-23 06:33 | 56.66361 | 36.75368 | 15472 ft | 303 kts | 36° |
| 2026-04-23 06:33 | 56.67657 | 36.78256 | 14857 ft | 304 kts | 64° |
| 2026-04-23 06:33 | 56.68261 | 36.81899 | 14387 ft | 299 kts | 81° |
| 2026-04-23 06:33 | 56.68240 | 36.85640 | 13872 ft | 297 kts | 99° |
| 2026-04-23 06:34 | 56.67543 | 36.89117 | 13376 ft | 296 kts | 118° |
| 2026-04-23 06:34 | 56.66265 | 36.92028 | 12909 ft | 294 kts | 132° |
| 2026-04-23 06:34 | 56.64865 | 36.94680 | 12452 ft | 291 kts | 133° |
| 2026-04-23 06:34 | 56.63450 | 36.97269 | 11968 ft | 289 kts | 133° |
| 2026-04-23 06:35 | 56.62026 | 36.99844 | 11497 ft | 287 kts | 133° |
| 2026-04-23 06:35 | 56.60625 | 37.02365 | 11027 ft | 286 kts | 133° |
| 2026-04-23 06:35 | 56.59227 | 37.04881 | 10549 ft | 285 kts | 133° |
| 2026-04-23 06:35 | 56.57813 | 37.07418 | 10092 ft | 283 kts | 132° |
| 2026-04-23 06:36 | 56.56434 | 37.09889 | 9839 ft | 275 kts | 132° |
| 2026-04-23 06:36 | 56.55118 | 37.12255 | 9674 ft | 265 kts | 132° |
| 2026-04-23 06:36 | 56.53827 | 37.14572 | 9474 ft | 257 kts | 131° |
| 2026-04-23 06:36 | 56.52577 | 37.16809 | 9276 ft | 251 kts | 132° |
| 2026-04-23 06:37 | 56.51127 | 37.18553 | 9041 ft | 252 kts | 156° |
| 2026-04-23 06:37 | 56.49461 | 37.19377 | 8882 ft | 247 kts | 163° |
| 2026-04-23 06:37 | 56.47803 | 37.20074 | 8705 ft | 243 kts | 165° |
| 2026-04-23 06:37 | 56.46178 | 37.20732 | 8521 ft | 239 kts | 165° |
| 2026-04-23 06:38 | 56.44572 | 37.21379 | 8399 ft | 234 kts | 164° |
| 2026-04-23 06:38 | 56.42994 | 37.22018 | 8325 ft | 235 kts | 164° |
| 2026-04-23 06:38 | 56.41386 | 37.22674 | 8037 ft | 243 kts | 164° |
| 2026-04-23 06:38 | 56.39703 | 37.23358 | 7525 ft | 253 kts | 164° |
| 2026-04-23 06:39 | 56.37952 | 37.24070 | 7030 ft | 261 kts | 164° |
| 2026-04-23 06:39 | 56.36208 | 37.24777 | 6833 ft | 254 kts | 164° |
| 2026-04-23 06:39 | 56.34528 | 37.25458 | 6782 ft | 243 kts | 164° |
| 2026-04-23 06:39 | 56.32909 | 37.26115 | 6673 ft | 237 kts | 163° |
| 2026-04-23 06:40 | 56.31311 | 37.26764 | 6571 ft | 231 kts | 164° |
| 2026-04-23 06:40 | 56.29748 | 37.27399 | 6487 ft | 232 kts | 164° |
| 2026-04-23 06:40 | 56.28158 | 37.28040 | 6415 ft | 234 kts | 164° |
| 2026-04-23 06:40 | 56.26591 | 37.28674 | 6338 ft | 234 kts | 164° |
| 2026-04-23 06:41 | 56.24989 | 37.29327 | 6249 ft | 235 kts | 163° |
| 2026-04-23 06:41 | 56.23416 | 37.30083 | 6009 ft | 237 kts | 161° |
| 2026-04-23 06:41 | 56.21817 | 37.30891 | 5769 ft | 237 kts | 160° |
| 2026-04-23 06:41 | 56.20254 | 37.31680 | 5624 ft | 233 kts | 160° |
| 2026-04-23 06:42 | 56.18697 | 37.32459 | 5480 ft | 230 kts | 161° |
| 2026-04-23 06:42 | 56.17170 | 37.33224 | 5262 ft | 232 kts | 160° |
| 2026-04-23 06:42 | 56.15744 | 37.34497 | 4993 ft | 227 kts | 134° |
| 2026-04-23 06:42 | 56.14652 | 37.36472 | 4879 ft | 217 kts | 127° |
| 2026-04-23 06:43 | 56.13673 | 37.38383 | 4773 ft | 202 kts | 126° |
| 2026-04-23 06:43 | 56.12760 | 37.40208 | 4579 ft | 195 kts | 128° |
| 2026-04-23 06:43 | 56.11897 | 37.41887 | 4468 ft | 178 kts | 127° |
| 2026-04-23 06:43 | 56.11059 | 37.43535 | 4192 ft | 177 kts | 127° |
| 2026-04-23 06:44 | 56.10231 | 37.45161 | 3933 ft | 177 kts | 127° |
| 2026-04-23 06:44 | 56.09412 | 37.46776 | 3676 ft | 176 kts | 127° |
| 2026-04-23 06:44 | 56.08600 | 37.48379 | 3423 ft | 176 kts | 127° |
| 2026-04-23 06:44 | 56.07772 | 37.50007 | 3167 ft | 175 kts | 127° |
| 2026-04-23 06:45 | 56.06958 | 37.51623 | 2917 ft | 176 kts | 127° |
| 2026-04-23 06:45 | 56.06136 | 37.53244 | 2659 ft | 179 kts | 129° |
| 2026-04-23 06:45 | 56.05315 | 37.54892 | 2484 ft | 170 kts | 127° |
| 2026-04-23 06:45 | 56.04544 | 37.56412 | 2486 ft | 157 kts | 127° |
| 2026-04-23 06:46 | 56.03836 | 37.57869 | 2453 ft | 154 kts | 126° |
| 2026-04-23 06:46 | 56.03133 | 37.59279 | 2497 ft | 146 kts | 124° |
| 2026-04-23 06:46 | 56.02378 | 37.60501 | 2425 ft | 152 kts | 147° |
| 2026-04-23 06:46 | 56.01335 | 37.60717 | 2299 ft | 151 kts | 194° |
| 2026-04-23 06:47 | 56.00465 | 37.59784 | 2215 ft | 142 kts | 236° |
| 2026-04-23 06:47 | 55.99976 | 37.58248 | 2208 ft | 133 kts | 250° |
| 2026-04-23 06:47 | 55.99651 | 37.56611 | 2109 ft | 140 kts | 259° |
| 2026-04-23 06:47 | 55.99392 | 37.54982 | 1920 ft | 140 kts | 262° |
| 2026-04-23 06:48 | 55.99147 | 37.53286 | 1739 ft | 140 kts | 262° |
| 2026-04-23 06:48 | 55.98906 | 37.51711 | 1550 ft | 124 kts | 260° |
| 2026-04-23 06:48 | 55.98676 | 37.50124 | 1429 ft | 132 kts | 262° |
| 2026-04-23 06:48 | 55.98432 | 37.48445 | 1203 ft | 147 kts | 261° |
| 2026-04-23 06:49 | 55.98174 | 37.46726 | 1012 ft | 140 kts | 261° |
| 2026-04-23 06:49 | 55.97932 | 37.45088 | 812 ft | 127 kts | 257° |
| 2026-04-23 06:49 | 55.97713 | 37.43670 | 645 ft | 110 kts | 259° |
| 2026-04-23 06:49 | 55.97583 | 37.42692 | 638 ft | 44 kts | 256° |
| 2026-04-23 06:50 | 55.97542 | 37.42408 | 637 ft | 10 kts | 255° |
| 2026-04-23 06:50 | 55.97520 | 37.42272 | 637 ft | 19 kts | 254° |
| 2026-04-23 06:50 | 55.97554 | 37.42179 | 637 ft | 9 kts | 31° |
| 2026-04-23 06:50 | 55.97631 | 37.42288 | 637 ft | 16 kts | 37° |
| 2026-04-23 06:51 | 55.97688 | 37.42186 | 637 ft | 14 kts | 278° |
| 2026-04-23 06:51 | 55.97768 | 37.42101 | 637 ft | 18 kts | 342° |
| 2026-04-23 06:51 | 55.97911 | 37.42032 | 637 ft | 21 kts | 343° |
| 2026-04-23 06:51 | 55.98039 | 37.41972 | 637 ft | 15 kts | 346° |
| 2026-04-23 06:52 | 55.98074 | 37.41956 | 637 ft | 0 kts | 346° |
| 2026-04-23 06:54 | 55.98063 | 37.41962 | 637 ft | 2 kts | 327° |
| 2026-04-23 06:55 | 55.98053 | 37.41979 | 637 ft | 2 kts | 307° |
| 2026-04-23 06:55 | 55.98046 | 37.42003 | 637 ft | 2 kts | 284° |
| 2026-04-23 06:55 | 55.98045 | 37.42028 | 637 ft | 2 kts | 262° |
| 2026-04-23 06:55 | 55.98049 | 37.42054 | 637 ft | 2 kts | 250° |
| 2026-04-23 06:56 | 55.98053 | 37.42079 | 637 ft | 2 kts | 253° |
| 2026-04-23 06:56 | 55.98056 | 37.42096 | 637 ft | 0 kts | 253° |
| 2026-04-23 06:56 | 55.98056 | 37.42098 | 637 ft | 0 kts | 253° |
| 2026-04-23 06:56 | 55.98056 | 37.42097 | 637 ft | 0 kts | 253° |